Glemsford, United Kingdom
Current Conditions -  °F | °C
As of 9:50 AM on Thursday 23 Oct 2014 (Local Time) from EGUW Reporting Station
Broken Clouds Broken Clouds  
Wind Chill: 12°   Ceiling: 3000
Heat Index: 12°   Visibility: 6mi
Dew Point:   Wind: 9mph
Humidity: 77%   Direction: 200°SSW
Pressure: 30.09"   Gusts: NA
Location:  52.1°N, 0.67°E
Report Text: EGUW 230850Z 20008KT 9999 BKN030 12/08 Q1019 BLU NOSIG
Loading
Personal Weather Stations






























Interactive Weather Map
Tropical Storm Tracking
New forecast layout! Learn more

10-Day Weather Forecast

Advertisements
Track Severe Weather on mobile